createdAt,value
2018-11-26T00:00:22.765Z,21.35
2018-11-26T00:02:51.211Z,22.17
2018-11-26T00:05:19.595Z,21.05
2018-11-26T00:07:48.009Z,25.43
2018-11-26T00:10:27.692Z,19.42
2018-11-26T00:12:56.112Z,20.52
2018-11-26T00:15:24.496Z,19.37
2018-11-26T00:17:52.875Z,18.70
2018-11-26T00:20:21.246Z,20.25
2018-11-26T00:22:49.640Z,26.00
2018-11-26T00:25:18.024Z,24.85
2018-11-26T00:27:46.449Z,24.30
2018-11-26T00:30:14.827Z,19.20
2018-11-26T00:32:43.189Z,20.25
2018-11-26T00:35:11.584Z,17.77
2018-11-26T00:37:39.955Z,16.97
2018-11-26T00:40:10.256Z,16.75
2018-11-26T00:42:38.612Z,20.82
2018-11-26T00:45:09.092Z,19.60
2018-11-26T00:47:37.520Z,19.07
2018-11-26T00:50:07.080Z,17.05
2018-11-26T00:52:35.467Z,19.87
2018-11-26T00:55:04.093Z,19.50
2018-11-26T00:57:32.453Z,18.15
2018-11-26T01:00:00.857Z,16.70
2018-11-26T01:02:29.245Z,18.48
2018-11-26T01:04:57.848Z,21.02
2018-11-26T01:07:26.251Z,18.82
2018-11-26T01:09:54.649Z,19.80
2018-11-26T01:12:23.045Z,21.57
2018-11-26T01:14:51.461Z,18.90
2018-11-26T01:17:19.820Z,16.35
2018-11-26T01:19:48.237Z,20.00
2018-11-26T01:22:16.601Z,15.98
2018-11-26T01:24:44.993Z,16.20
2018-11-26T01:27:13.357Z,19.55
2018-11-26T01:29:41.898Z,19.55
2018-11-26T01:32:10.286Z,16.17
2018-11-26T01:34:38.687Z,13.70
2018-11-26T01:37:07.107Z,15.03
2018-11-26T01:39:35.489Z,18.48
2018-11-26T01:42:03.877Z,16.23
2018-11-26T01:44:32.255Z,17.00
2018-11-26T01:47:00.642Z,16.95
2018-11-26T01:49:29.020Z,18.10
2018-11-26T01:51:57.427Z,16.82
2018-11-26T01:54:25.801Z,18.17
2018-11-26T01:56:54.214Z,19.23
2018-11-26T01:59:22.804Z,19.32
2018-11-26T02:01:51.203Z,18.30
2018-11-26T02:04:19.580Z,16.97
2018-11-26T02:06:47.959Z,16.82
2018-11-26T02:09:16.340Z,19.48
2018-11-26T02:11:44.741Z,19.52
2018-11-26T02:14:13.116Z,17.52
2018-11-26T02:16:41.500Z,21.87
2018-11-26T02:19:09.872Z,16.10
2018-11-26T02:21:38.227Z,21.23
2018-11-26T02:24:06.667Z,18.23
2018-11-26T02:26:35.034Z,19.57
2018-11-26T02:29:03.418Z,16.23
2018-11-26T02:31:31.824Z,17.65
2018-11-26T02:34:00.203Z,19.73
2018-11-26T02:36:28.596Z,19.27
2018-11-26T02:38:56.979Z,19.05
2018-11-26T02:41:25.345Z,18.73
2018-11-26T02:43:53.761Z,20.20
2018-11-26T02:46:22.128Z,21.85
2018-11-26T02:48:50.686Z,20.97
2018-11-26T02:51:19.048Z,22.90
2018-11-26T02:53:47.427Z,26.52
2018-11-26T02:56:15.812Z,20.95
2018-11-26T02:58:44.184Z,24.80
2018-11-26T03:01:12.624Z,20.82
2018-11-26T03:03:40.984Z,24.72
2018-11-26T03:06:09.344Z,20.15
2018-11-26T03:08:37.744Z,20.90
2018-11-26T03:11:06.505Z,21.20
2018-11-26T03:13:34.974Z,28.38
2018-11-26T03:16:03.345Z,26.30
2018-11-26T03:18:31.712Z,21.60
2018-11-26T03:21:00.081Z,22.40
2018-11-26T03:23:28.535Z,30.25
2018-11-26T03:25:56.893Z,28.60
2018-11-26T03:28:25.296Z,27.58
2018-11-26T03:30:53.706Z,27.87
2018-11-26T03:33:22.085Z,32.42
2018-11-26T03:35:50.482Z,33.50
2018-11-26T03:38:33.856Z,31.20
2018-11-26T03:41:02.289Z,32.03
2018-11-26T03:43:30.645Z,32.50
2018-11-26T03:45:59.017Z,37.42
2018-11-26T03:48:27.407Z,42.60
2018-11-26T03:50:55.790Z,36.88
2018-11-26T03:53:24.157Z,40.05
2018-11-26T03:55:52.560Z,45.03
2018-11-26T03:58:20.934Z,37.17
2018-11-26T04:00:52.972Z,36.42
2018-11-26T04:03:21.632Z,44.15
2018-11-26T04:05:50.015Z,43.45
2018-11-26T04:08:18.388Z,43.70
2018-11-26T04:10:46.779Z,42.73
2018-11-26T04:13:15.178Z,42.15
2018-11-26T04:15:43.564Z,46.53
2018-11-26T04:18:11.966Z,39.80
2018-11-26T04:20:40.420Z,46.70
2018-11-26T04:23:08.793Z,38.50
2018-11-26T04:25:37.156Z,46.60
2018-11-26T04:28:06.129Z,38.60
2018-11-26T04:30:34.670Z,45.25
2018-11-26T04:33:03.101Z,46.25
2018-11-26T04:35:31.477Z,42.35
2018-11-26T04:37:59.873Z,47.20
2018-11-26T04:40:28.259Z,42.85
2018-11-26T04:42:56.693Z,39.95
2018-11-26T04:45:25.096Z,43.28
2018-11-26T04:47:53.453Z,51.15
2018-11-26T04:50:21.841Z,39.67
2018-11-26T04:52:50.200Z,46.05
2018-11-26T04:55:18.657Z,41.42
2018-11-26T04:57:47.032Z,38.98
2018-11-26T05:00:15.936Z,36.13
2018-11-26T05:02:44.328Z,33.58
2018-11-26T05:05:13.354Z,27.73
2018-11-26T05:07:41.739Z,40.05
2018-11-26T05:10:12.301Z,37.17
2018-11-26T05:12:40.663Z,36.23
2018-11-26T05:15:11.432Z,36.28
2018-11-26T05:17:39.846Z,32.73
2018-11-26T05:20:11.555Z,34.20
2018-11-26T05:22:39.939Z,30.75
2018-11-26T05:25:09.648Z,32.08
2018-11-26T05:27:38.073Z,35.05
2018-11-26T05:30:08.860Z,34.30
2018-11-26T05:32:37.249Z,36.50
2018-11-26T05:35:06.939Z,36.38
2018-11-26T05:37:35.340Z,35.40
2018-11-26T05:40:04.317Z,43.83
2018-11-26T05:42:32.726Z,37.60
2018-11-26T07:24:38.605Z,55.98
2018-11-26T07:27:06.971Z,47.25
2018-11-26T07:29:35.365Z,56.33
2018-11-26T07:32:03.842Z,43.85
2018-11-26T07:34:32.242Z,60.05
2018-11-26T07:37:00.628Z,54.42
2018-11-26T07:39:29.101Z,50.67
2018-11-26T07:41:57.491Z,41.65
2018-11-26T07:44:25.917Z,41.37
2018-11-26T07:46:54.317Z,41.63
2018-11-26T07:49:23.417Z,44.63
2018-11-26T07:51:51.210Z,40.05
2018-11-26T07:54:19.577Z,38.08
2018-11-26T07:56:47.966Z,35.75
2018-11-26T07:59:16.341Z,31.45
2018-11-26T08:01:45.227Z,35.50
2018-11-26T08:04:13.605Z,33.15
2018-11-26T08:06:41.984Z,35.00
2018-11-26T08:09:10.394Z,30.12
2018-11-26T08:11:38.776Z,33.38
2018-11-26T08:14:07.205Z,38.80
2018-11-26T08:16:35.599Z,35.90
2018-11-26T08:19:03.996Z,37.17
2018-11-26T08:21:32.388Z,34.10
2018-11-26T08:24:00.771Z,36.35
2018-11-26T08:26:29.269Z,36.85
2018-11-26T08:28:57.664Z,37.33
2018-11-26T08:31:26.063Z,34.38
2018-11-26T08:33:54.546Z,32.65
2018-11-26T08:36:28.236Z,32.85
2018-11-26T08:39:01.955Z,37.42
2018-11-26T08:41:36.436Z,29.90
2018-11-26T08:45:12.017Z,30.68
2018-11-26T08:47:43.789Z,30.52
2018-11-26T08:50:15.112Z,27.60
2018-11-26T08:52:43.509Z,27.30
2018-11-26T08:55:11.922Z,30.95
2018-11-26T08:57:40.321Z,23.73
2018-11-26T09:00:10.340Z,29.40
2018-11-26T09:02:44.364Z,32.83
2018-11-26T09:05:24.176Z,34.55
2018-11-26T09:07:51.264Z,33.83
2018-11-26T09:10:19.669Z,40.10
2018-11-26T09:12:48.036Z,37.90
2018-11-26T09:15:16.423Z,38.25
2018-11-26T09:17:44.801Z,33.70
2018-11-26T09:20:13.168Z,38.30
2018-11-26T09:22:41.540Z,36.98
2018-11-26T09:25:12.225Z,34.03
2018-11-26T09:27:40.669Z,41.18
2018-11-26T09:30:12.824Z,39.70
2018-11-26T09:32:42.070Z,34.38
2018-11-26T09:35:14.722Z,44.48
2018-11-26T09:37:43.136Z,41.53
2018-11-26T09:40:13.973Z,36.98
2018-11-26T09:42:42.494Z,40.12
2018-11-26T09:45:12.471Z,34.03
2018-11-26T09:47:40.853Z,34.67
2018-11-26T09:50:11.910Z,34.85
2018-11-26T09:52:40.345Z,44.95
2018-11-26T09:55:09.357Z,47.98
2018-11-26T09:57:37.724Z,40.98
2018-11-26T10:00:12.221Z,40.80
2018-11-26T10:02:41.189Z,35.30
2018-11-26T10:05:12.177Z,32.53
2018-11-26T10:07:40.589Z,35.00
2018-11-26T10:10:10.438Z,30.37
2018-11-26T10:12:39.339Z,38.00
2018-11-26T10:15:12.772Z,25.30
2018-11-26T10:17:41.173Z,28.67
2018-11-26T10:20:10.540Z,22.07
2018-11-26T10:22:39.160Z,30.57
2018-11-26T10:25:09.398Z,24.20
2018-11-26T10:27:37.789Z,23.02
2018-11-26T10:30:09.736Z,22.90
2018-11-26T10:32:38.478Z,20.25
2018-11-26T10:35:08.344Z,20.75
2018-11-26T10:37:37.277Z,18.55
2018-11-26T10:40:24.997Z,21.48
2018-11-26T10:42:53.435Z,20.60
2018-11-26T10:45:25.338Z,21.90
2018-11-26T10:47:53.760Z,16.02
2018-11-26T10:50:24.133Z,15.72
2018-11-26T10:52:54.828Z,18.42
2018-11-26T10:55:24.657Z,20.12
2018-11-26T10:57:53.023Z,19.23
2018-11-26T11:00:26.794Z,16.17
2018-11-26T11:02:55.164Z,14.47
2018-11-26T11:05:23.692Z,16.40
2018-11-26T11:07:52.088Z,18.10
2018-11-26T11:10:24.552Z,18.17
2018-11-26T11:12:52.960Z,22.77
2018-11-26T11:15:21.398Z,20.60
2018-11-26T11:17:49.814Z,18.98
2018-11-26T11:20:21.245Z,14.65
2018-11-26T11:22:49.655Z,17.35
2018-11-26T11:25:18.720Z,17.00
2018-11-26T11:27:47.301Z,16.45
2018-11-26T11:30:25.738Z,20.52
2018-11-26T11:32:54.123Z,22.65
2018-11-26T11:35:22.561Z,20.40
2018-11-26T11:37:52.099Z,16.00
2018-11-26T11:40:26.286Z,17.95
2018-11-26T11:42:54.729Z,17.07
2018-11-26T11:45:23.540Z,15.83
2018-11-26T11:47:51.951Z,16.95
2018-11-26T11:50:21.150Z,25.43
2018-11-26T11:52:50.030Z,16.97
2018-11-26T11:55:20.542Z,15.48
2018-11-26T11:57:49.001Z,18.15
2018-11-26T12:00:52.054Z,20.27
2018-11-26T12:03:21.170Z,16.67
2018-11-26T12:05:49.567Z,21.20
2018-11-26T12:08:17.981Z,17.57
2018-11-26T12:10:46.362Z,20.45
2018-11-26T12:13:15.505Z,18.32
2018-11-26T12:15:48.405Z,16.95
2018-11-26T12:18:16.805Z,14.03
2018-11-26T12:20:45.325Z,18.80
2018-11-26T12:23:13.729Z,17.23
2018-11-26T12:25:42.150Z,20.20
2018-11-26T12:28:10.575Z,16.55
2018-11-26T12:30:40.571Z,17.35
2018-11-26T12:33:08.977Z,17.27
2018-11-26T12:35:37.377Z,14.25
2018-11-26T12:38:05.823Z,16.93
2018-11-26T12:40:34.211Z,16.05
2018-11-26T12:43:03.675Z,16.67
2018-11-26T12:45:33.473Z,21.85
2018-11-26T12:48:02.158Z,22.20
2018-11-26T12:50:30.608Z,22.30
2018-11-26T12:52:59.042Z,17.07
2018-11-26T12:55:27.566Z,17.55
2018-11-26T12:57:56.698Z,13.83
2018-11-26T13:00:26.479Z,17.85
2018-11-26T13:03:08.482Z,13.18
2018-11-26T13:05:36.970Z,18.37
2018-11-26T13:08:05.609Z,16.45
2018-11-26T13:10:34.031Z,14.18
2018-11-26T13:13:02.490Z,16.50
2018-11-26T13:15:30.983Z,16.75
2018-11-26T13:17:59.385Z,17.00
2018-11-26T13:20:28.785Z,18.00
2018-11-26T13:22:57.209Z,17.98
2018-11-26T13:25:30.026Z,20.15
2018-11-26T13:28:00.861Z,20.80
2018-11-26T13:30:31.619Z,17.10
2018-11-26T13:33:01.268Z,18.73
2018-11-26T13:35:29.689Z,19.50
2018-11-26T13:37:58.159Z,18.77
2018-11-26T13:40:26.660Z,22.95
2018-11-26T13:42:55.107Z,19.23
2018-11-26T13:45:25.098Z,19.55
2018-11-26T13:47:53.522Z,15.13
2018-11-26T13:50:27.409Z,15.60
2018-11-26T13:52:56.424Z,17.12
2018-11-26T13:55:24.861Z,16.77
2018-11-26T13:57:53.293Z,17.23
2018-11-26T14:00:21.695Z,18.65
2018-11-26T14:02:50.113Z,15.32
2018-11-26T14:05:19.223Z,14.70
2018-11-26T14:07:48.126Z,13.13
2018-11-26T14:10:20.633Z,16.93
2018-11-26T14:12:58.194Z,15.03
2018-11-26T14:15:26.587Z,17.02
2018-11-26T14:17:55.068Z,17.10
2018-11-26T14:20:23.485Z,11.10
2018-11-26T14:22:51.919Z,12.30
2018-11-26T14:25:20.374Z,10.78
2018-11-26T14:27:49.160Z,10.72
2018-11-26T14:30:26.119Z,10.85
2018-11-26T14:32:55.023Z,10.98
2018-11-26T14:35:23.446Z,9.48
2018-11-26T14:37:56.183Z,11.38
2018-11-26T14:40:33.985Z,11.63
2018-11-26T14:43:02.406Z,12.93
2018-11-26T14:45:30.793Z,6.87
2018-11-26T14:47:59.358Z,8.53
2018-11-26T14:50:27.774Z,9.10
2018-11-26T14:52:56.201Z,10.65
2018-11-26T14:55:25.975Z,8.75
2018-11-26T14:57:54.425Z,12.45
2018-11-26T15:00:22.895Z,9.40
2018-11-26T15:02:51.325Z,9.00
2018-11-26T15:05:19.762Z,10.55
2018-11-26T15:07:48.198Z,6.60
2018-11-26T15:10:21.174Z,7.20
2018-11-26T15:12:50.458Z,9.88
2018-11-26T15:15:20.691Z,9.40
2018-11-26T15:17:49.165Z,6.75
2018-11-26T15:20:19.553Z,11.88
2018-11-26T15:22:48.441Z,7.60
2018-11-26T15:25:21.073Z,6.83
2018-11-26T15:27:50.001Z,7.00
2018-11-26T15:30:19.741Z,14.03
2018-11-26T15:32:48.321Z,10.18
2018-11-26T15:35:20.090Z,9.25
2018-11-26T15:37:48.561Z,9.93
2018-11-26T15:40:18.087Z,10.35
2018-11-26T15:42:46.490Z,9.48
2018-11-26T15:45:19.930Z,8.20
2018-11-26T15:47:48.810Z,8.75
2018-11-26T15:50:17.210Z,7.22
2018-11-26T15:52:45.611Z,8.75
2018-11-26T15:55:15.476Z,7.62
2018-11-26T15:57:43.863Z,10.32
2018-11-26T16:00:14.486Z,17.15
2018-11-26T16:02:42.900Z,26.37
2018-11-26T16:05:27.230Z,22.73
2018-11-26T16:07:57.198Z,15.60
2018-11-26T16:10:25.616Z,10.70
2018-11-26T16:12:55.671Z,17.77
2018-11-26T16:15:26.513Z,23.42
2018-11-26T16:17:56.238Z,19.27
2018-11-26T16:20:25.842Z,21.23
2018-11-26T16:22:54.638Z,18.65
2018-11-26T16:25:26.130Z,19.07
2018-11-26T16:27:54.570Z,14.10
2018-11-26T16:30:23.080Z,13.83
2018-11-26T16:32:53.902Z,13.83
2018-11-26T16:35:25.009Z,18.07
2018-11-26T16:37:53.438Z,18.52
2018-11-26T16:40:21.870Z,14.18
2018-11-26T16:42:50.321Z,14.73
2018-11-26T16:45:21.000Z,17.47
2018-11-26T16:47:50.618Z,15.15
2018-11-26T16:50:20.327Z,11.33
2018-11-26T16:52:48.757Z,10.08
2018-11-26T16:55:17.717Z,15.43
2018-11-26T16:57:46.403Z,10.98
2018-11-26T17:00:15.995Z,14.00
2018-11-26T17:02:44.780Z,16.80
2018-11-26T17:05:15.468Z,15.23
2018-11-26T17:07:44.547Z,26.65
2018-11-26T17:10:13.027Z,29.27
2018-11-26T17:12:41.710Z,26.65
2018-11-26T17:15:15.302Z,32.42
2018-11-26T17:17:43.743Z,37.42
2018-11-26T17:20:13.371Z,30.68
2018-11-26T17:22:42.114Z,30.70
2018-11-26T17:25:11.750Z,28.87
2018-11-26T17:27:40.681Z,29.07
2018-11-26T17:30:16.264Z,24.27
2018-11-26T17:32:45.153Z,36.20
2018-11-26T17:35:14.863Z,23.22
2018-11-26T17:37:43.290Z,19.30
2018-11-26T17:40:13.403Z,21.57
2018-11-26T17:42:41.819Z,16.23
2018-11-26T17:45:12.366Z,19.67
2018-11-26T17:47:41.767Z,28.77
2018-11-26T17:50:15.796Z,27.17
2018-11-26T17:52:44.215Z,27.93
2018-11-26T17:55:12.632Z,30.52
2018-11-26T17:57:41.086Z,33.88
2018-11-26T18:00:12.851Z,25.35
2018-11-26T18:02:42.025Z,30.68
2018-11-26T18:05:14.171Z,24.18
2018-11-26T18:07:42.585Z,19.30
2018-11-26T18:10:12.649Z,19.65
2018-11-26T18:12:41.139Z,22.73
2018-11-26T18:15:12.902Z,21.97
2018-11-26T18:17:41.426Z,22.82
2018-11-26T18:20:19.468Z,20.95
2018-11-26T18:22:49.446Z,20.72
2018-11-26T18:25:18.351Z,22.77
2018-11-26T18:27:51.911Z,25.20
2018-11-26T18:30:23.192Z,23.60
2018-11-26T18:32:51.583Z,32.85
2018-11-26T18:35:20.053Z,31.07
2018-11-26T18:37:48.459Z,34.25
2018-11-26T18:40:17.411Z,31.73
2018-11-26T18:42:45.823Z,38.20
2018-11-26T18:45:16.385Z,37.60
2018-11-26T18:47:45.477Z,39.60
2018-11-26T18:50:18.052Z,36.45
2018-11-26T18:52:46.960Z,35.73
2018-11-26T18:55:15.660Z,39.65
2018-11-26T18:57:44.372Z,43.35
2018-11-26T19:00:20.267Z,38.98
2018-11-26T19:02:48.710Z,44.23
2018-11-26T19:05:17.852Z,35.23
2018-11-26T19:07:46.281Z,38.15
2018-11-26T19:10:19.989Z,40.08
2018-11-26T19:12:51.097Z,34.18
2018-11-26T19:15:22.213Z,41.23
2018-11-26T19:17:51.709Z,41.63
2018-11-26T19:20:20.147Z,43.60
2018-11-26T19:22:48.570Z,35.28
2018-11-26T19:25:18.066Z,35.33
2018-11-26T19:27:46.611Z,38.17
2018-11-26T19:30:15.577Z,39.42
2018-11-26T19:32:45.094Z,36.45
2018-11-26T19:35:14.842Z,31.37
2018-11-26T19:37:43.361Z,32.45
2018-11-26T19:40:14.746Z,31.90
2018-11-26T19:42:45.276Z,38.48
2018-11-26T19:45:15.058Z,39.48
2018-11-26T19:47:43.526Z,33.95
2018-11-26T19:50:13.348Z,36.83
2018-11-26T19:52:41.838Z,34.55
2018-11-26T19:55:14.624Z,38.35
2018-11-26T19:57:43.047Z,35.20
2018-11-26T20:00:15.907Z,37.88
2018-11-26T20:02:45.853Z,39.05
2018-11-26T20:05:20.319Z,33.40
2018-11-26T20:07:48.800Z,33.80
2018-11-26T20:10:17.208Z,31.07
2018-11-26T20:12:45.688Z,46.85
2018-11-26T20:15:15.726Z,33.92
2018-11-26T20:17:44.166Z,37.45
2018-11-26T20:20:12.619Z,34.90
2018-11-26T20:22:41.031Z,33.65
2018-11-26T20:25:12.257Z,29.30
2018-11-26T20:27:41.226Z,29.75
2018-11-26T20:30:11.576Z,33.13
2018-11-26T20:32:40.701Z,31.10
2018-11-26T20:35:10.365Z,40.43
2018-11-26T20:37:38.822Z,30.48
2018-11-26T20:40:12.538Z,32.23
2018-11-26T20:42:47.096Z,36.17
2018-11-26T20:45:16.177Z,29.67
2018-11-26T20:47:45.581Z,29.40
2018-11-26T20:50:19.520Z,29.60
2018-11-26T20:52:47.966Z,33.05
2018-11-26T20:55:17.657Z,41.15
2018-11-26T20:57:46.684Z,37.40
2018-11-26T21:00:19.397Z,36.68
2018-11-26T21:02:49.147Z,32.25
2018-11-26T21:05:17.787Z,43.08
2018-11-26T21:07:46.221Z,34.13
2018-11-26T21:10:15.687Z,36.23
2018-11-26T21:12:44.277Z,34.30
2018-11-26T21:15:16.030Z,39.55
2018-11-26T21:17:47.176Z,39.35
2018-11-26T21:20:26.035Z,39.67
2018-11-26T21:22:55.066Z,36.03
2018-11-26T21:25:23.478Z,33.65
2018-11-26T21:27:52.657Z,35.65
2018-11-26T21:30:21.106Z,35.68
2018-11-26T21:32:49.536Z,37.58
2018-11-26T21:35:19.155Z,34.27
2018-11-26T21:37:49.154Z,30.45
2018-11-26T21:40:20.544Z,40.50
2018-11-26T21:42:48.641Z,41.53
2018-11-26T21:45:18.573Z,35.88
2018-11-26T21:47:47.007Z,36.15
2018-11-26T21:50:15.946Z,34.20
2018-11-26T21:52:44.743Z,45.45
2018-11-26T21:55:15.548Z,38.80
2018-11-26T21:57:43.687Z,43.45
2018-11-26T22:00:18.682Z,34.90
2018-11-26T22:02:47.203Z,42.95
2018-11-26T22:05:16.141Z,35.17
2018-11-26T22:07:44.621Z,40.03
2018-11-26T22:10:15.974Z,38.48
2018-11-26T22:12:45.941Z,45.17
2018-11-26T22:15:14.571Z,39.00
2018-11-26T22:17:43.148Z,36.70
2018-11-26T22:20:17.751Z,43.00
2018-11-26T22:22:46.154Z,45.60
2018-11-26T22:25:14.574Z,44.60
2018-11-26T22:27:43.006Z,42.20
2018-11-26T22:30:16.303Z,46.58
2018-11-26T22:32:44.790Z,41.53
2018-11-26T22:35:13.220Z,39.63
2018-11-26T22:37:41.641Z,36.77
2018-11-26T22:40:11.531Z,33.95
2018-11-26T22:42:40.536Z,31.30
2018-11-26T22:45:11.803Z,37.45
2018-11-26T22:47:40.323Z,38.10
2018-11-26T22:50:12.889Z,33.73
2018-11-26T22:52:41.431Z,32.70
2018-11-26T22:55:11.326Z,38.02
2018-11-26T22:57:40.018Z,34.30
2018-11-26T23:00:21.359Z,43.02
2018-11-26T23:02:50.130Z,30.17
2018-11-26T23:05:18.591Z,36.48
2018-11-26T23:07:47.130Z,34.33
2018-11-26T23:10:15.543Z,35.15
2018-11-26T23:12:43.993Z,34.58
2018-11-26T23:15:13.635Z,35.50
2018-11-26T23:17:42.737Z,35.23
2018-11-26T23:20:12.605Z,34.75
2018-11-26T23:22:41.034Z,33.78
2018-11-26T23:25:15.170Z,32.17
2018-11-26T23:27:43.758Z,39.45
2018-11-26T23:30:18.577Z,34.88
2018-11-26T23:32:48.339Z,33.78
2018-11-26T23:35:16.844Z,36.25
2018-11-26T23:37:45.257Z,31.05
2018-11-26T23:40:15.878Z,35.63
2018-11-26T23:42:44.338Z,28.98
2018-11-26T23:45:14.059Z,28.10
2018-11-26T23:47:42.505Z,31.65
2018-11-26T23:50:13.323Z,33.45
2018-11-26T23:52:42.098Z,33.25
2018-11-26T23:55:14.421Z,31.15
2018-11-26T23:57:42.856Z,30.90
